Terminal Aerodrome Forecast
Issued by NWS

Home | Current Version | Previous Version | Text Only | Print | Product List | Glossary On
Versions: 1 2 3 4 5 6 7 8 9 10 11 12
723
FTUS45 KRIW 191738
TAFBPI
TAF
KBPI 191738Z 1918/2018 06006KT P6SM BKN090
     FM192100 27012G20KT P6SM VCSH BKN035
     FM200100 33015KT 3SM -SN BKN018
     FM200600 35007KT 5SM -SN OVC025
     FM201600 36008KT 3SM -SN OVC018=

USA.gov is the U.S. government's official web portal to all federal, state and local government web resources and services.